Terminal Aerodrome Forecast
Issued by NWS

Home | Current Version | Previous Version | Graphics & Text | Print | Product List | Glossary On
Versions: 1 2 3 4 5 6 7 8 9 10 11 12 13 14 15 16 17
343
FTUS43 KPAH 181458 AAA
TAFCGI
TAF AMD
KCGI 181458Z 1815/1912 24007KT P6SM OVC005
      TEMPO 1815/1818 5SM -DZ BR
     FM181800 23009KT P6SM OVC025
     FM182100 20006KT P6SM SCT030=

USA.gov is the U.S. government's official web portal to all federal, state and local government web resources and services.